sensor_id;sensor_type;location;lat;lon;timestamp;P1;durP1;ratioP1;P2;durP2;ratioP2
57401;SDS011;43226;51.110;6.998;2023-02-28T00:02:22;2.13;;;1.83;;
57401;SDS011;43226;51.110;6.998;2023-02-28T00:04:47;3.03;;;1.73;;
57401;SDS011;43226;51.110;6.998;2023-02-28T00:07:17;3.27;;;2.23;;
57401;SDS011;43226;51.110;6.998;2023-02-28T00:09:43;2.10;;;1.90;;
57401;SDS011;43226;51.110;6.998;2023-02-28T00:12:08;6.40;;;2.00;;
57401;SDS011;43226;51.110;6.998;2023-02-28T00:14:35;2.40;;;2.10;;
57401;SDS011;43226;51.110;6.998;2023-02-28T00:17:01;2.90;;;1.90;;
57401;SDS011;43226;51.110;6.998;2023-02-28T00:19:26;3.03;;;1.83;;
57401;SDS011;43226;51.110;6.998;2023-02-28T00:21:51;5.70;;;1.80;;
57401;SDS011;43226;51.110;6.998;2023-02-28T00:24:16;2.80;;;1.90;;
57401;SDS011;43226;51.110;6.998;2023-02-28T00:26:41;2.47;;;2.27;;
57401;SDS011;43226;51.110;6.998;2023-02-28T00:29:07;6.03;;;1.83;;
57401;SDS011;43226;51.110;6.998;2023-02-28T00:31:32;3.10;;;1.67;;
57401;SDS011;43226;51.110;6.998;2023-02-28T00:33:57;2.70;;;2.00;;
57401;SDS011;43226;51.110;6.998;2023-02-28T00:36:23;2.63;;;2.40;;
57401;SDS011;43226;51.110;6.998;2023-02-28T00:38:48;2.40;;;1.87;;
57401;SDS011;43226;51.110;6.998;2023-02-28T00:41:13;3.00;;;1.90;;
57401;SDS011;43226;51.110;6.998;2023-02-28T00:43:39;2.13;;;1.97;;
57401;SDS011;43226;51.110;6.998;2023-02-28T00:46:04;2.10;;;1.90;;
57401;SDS011;43226;51.110;6.998;2023-02-28T00:48:30;2.00;;;1.37;;
57401;SDS011;43226;51.110;6.998;2023-02-28T00:50:55;3.40;;;1.97;;
57401;SDS011;43226;51.110;6.998;2023-02-28T00:53:20;2.30;;;2.10;;
57401;SDS011;43226;51.110;6.998;2023-02-28T00:55:46;2.07;;;1.97;;
57401;SDS011;43226;51.110;6.998;2023-02-28T00:58:12;2.10;;;1.90;;
57401;SDS011;43226;51.110;6.998;2023-02-28T01:00:37;2.70;;;2.13;;
57401;SDS011;43226;51.110;6.998;2023-02-28T01:03:02;2.63;;;1.83;;
57401;SDS011;43226;51.110;6.998;2023-02-28T01:05:27;2.37;;;1.90;;
57401;SDS011;43226;51.110;6.998;2023-02-28T01:07:52;12.43;;;2.53;;
57401;SDS011;43226;51.110;6.998;2023-02-28T01:10:17;3.00;;;1.87;;
57401;SDS011;43226;51.110;6.998;2023-02-28T01:12:43;2.80;;;1.93;;
57401;SDS011;43226;51.110;6.998;2023-02-28T01:15:09;3.40;;;2.07;;
57401;SDS011;43226;51.110;6.998;2023-02-28T01:17:35;2.57;;;2.27;;
57401;SDS011;43226;51.110;6.998;2023-02-28T01:20:00;5.00;;;1.93;;
57401;SDS011;43226;51.110;6.998;2023-02-28T01:22:26;3.13;;;2.03;;
57401;SDS011;43226;51.110;6.998;2023-02-28T01:24:51;1.97;;;1.77;;
57401;SDS011;43226;51.110;6.998;2023-02-28T01:27:16;3.30;;;2.13;;
57401;SDS011;43226;51.110;6.998;2023-02-28T01:29:41;2.93;;;2.00;;
57401;SDS011;43226;51.110;6.998;2023-02-28T01:32:06;1.80;;;1.70;;
57401;SDS011;43226;51.110;6.998;2023-02-28T01:34:31;8.90;;;2.00;;
57401;SDS011;43226;51.110;6.998;2023-02-28T01:36:57;1.90;;;1.80;;
57401;SDS011;43226;51.110;6.998;2023-02-28T01:39:23;7.37;;;2.00;;
57401;SDS011;43226;51.110;6.998;2023-02-28T01:41:48;3.13;;;1.90;;
57401;SDS011;43226;51.110;6.998;2023-02-28T01:46:57;4.33;;;1.83;;
57401;SDS011;43226;51.110;6.998;2023-02-28T01:49:22;3.77;;;2.20;;
57401;SDS011;43226;51.110;6.998;2023-02-28T01:51:48;2.20;;;2.00;;
57401;SDS011;43226;51.110;6.998;2023-02-28T01:56:51;7.90;;;2.20;;
57401;SDS011;43226;51.110;6.998;2023-02-28T01:59:21;4.87;;;2.07;;
57401;SDS011;43226;51.110;6.998;2023-02-28T02:01:47;2.57;;;2.37;;
57401;SDS011;43226;51.110;6.998;2023-02-28T02:04:12;2.07;;;1.97;;
57401;SDS011;43226;51.110;6.998;2023-02-28T02:06:39;2.50;;;1.50;;
57401;SDS011;43226;51.110;6.998;2023-02-28T02:09:05;8.83;;;2.57;;
57401;SDS011;43226;51.110;6.998;2023-02-28T02:11:31;2.23;;;2.00;;
57401;SDS011;43226;51.110;6.998;2023-02-28T02:19:29;2.70;;;2.08;;
57401;SDS011;43226;51.110;6.998;2023-02-28T02:33:03;2.00;;;1.90;;
57401;SDS011;43226;51.110;6.998;2023-02-28T02:38:19;3.43;;;1.97;;
57401;SDS011;43226;51.110;6.998;2023-02-28T02:43:32;3.43;;;2.10;;
57401;SDS011;43226;51.110;6.998;2023-02-28T02:46:10;2.00;;;1.67;;
57401;SDS011;43226;51.110;6.998;2023-02-28T02:48:38;2.50;;;2.10;;
57401;SDS011;43226;51.110;6.998;2023-02-28T02:51:05;2.10;;;1.90;;
57401;SDS011;43226;51.110;6.998;2023-02-28T02:53:37;4.27;;;2.07;;
57401;SDS011;43226;51.110;6.998;2023-02-28T02:56:05;2.17;;;2.00;;
57401;SDS011;43226;51.110;6.998;2023-02-28T02:58:32;2.30;;;2.10;;
57401;SDS011;43226;51.110;6.998;2023-02-28T03:01:00;2.40;;;1.67;;
57401;SDS011;43226;51.110;6.998;2023-02-28T03:03:26;3.20;;;2.30;;
57401;SDS011;43226;51.110;6.998;2023-02-28T03:05:57;1.97;;;1.87;;
57401;SDS011;43226;51.110;6.998;2023-02-28T03:08:23;2.60;;;2.33;;
57401;SDS011;43226;51.110;6.998;2023-02-28T03:10:48;3.80;;;2.53;;
57401;SDS011;43226;51.110;6.998;2023-02-28T03:18:23;3.20;;;2.10;;
57401;SDS011;43226;51.110;6.998;2023-02-28T03:20:54;3.53;;;2.37;;
57401;SDS011;43226;51.110;6.998;2023-02-28T03:23:29;7.13;;;2.47;;
57401;SDS011;43226;51.110;6.998;2023-02-28T03:26:01;3.00;;;1.80;;
57401;SDS011;43226;51.110;6.998;2023-02-28T03:28:41;4.83;;;2.30;;
57401;SDS011;43226;51.110;6.998;2023-02-28T03:31:15;2.43;;;2.23;;
57401;SDS011;43226;51.110;6.998;2023-02-28T03:33:44;4.60;;;2.30;;
57401;SDS011;43226;51.110;6.998;2023-02-28T03:36:15;2.87;;;2.30;;
57401;SDS011;43226;51.110;6.998;2023-02-28T03:38:44;2.70;;;2.50;;
57401;SDS011;43226;51.110;6.998;2023-02-28T03:41:17;4.33;;;2.33;;
57401;SDS011;43226;51.110;6.998;2023-02-28T03:43:46;3.60;;;2.10;;
57401;SDS011;43226;51.110;6.998;2023-02-28T03:46:14;3.73;;;2.80;;
57401;SDS011;43226;51.110;6.998;2023-02-28T03:48:43;2.80;;;2.00;;
57401;SDS011;43226;51.110;6.998;2023-02-28T03:51:10;3.83;;;2.30;;
57401;SDS011;43226;51.110;6.998;2023-02-28T03:53:40;2.70;;;2.50;;
57401;SDS011;43226;51.110;6.998;2023-02-28T03:56:09;2.53;;;2.10;;
57401;SDS011;43226;51.110;6.998;2023-02-28T03:58:47;3.07;;;2.77;;
57401;SDS011;43226;51.110;6.998;2023-02-28T04:01:21;1.77;;;1.67;;
57401;SDS011;43226;51.110;6.998;2023-02-28T04:03:48;2.17;;;1.97;;
57401;SDS011;43226;51.110;6.998;2023-02-28T04:06:15;2.20;;;1.73;;
57401;SDS011;43226;51.110;6.998;2023-02-28T04:08:41;2.70;;;2.20;;
57401;SDS011;43226;51.110;6.998;2023-02-28T04:11:07;3.13;;;2.10;;
57401;SDS011;43226;51.110;6.998;2023-02-28T04:13:33;1.83;;;1.73;;
57401;SDS011;43226;51.110;6.998;2023-02-28T04:15:58;1.80;;;1.70;;
57401;SDS011;43226;51.110;6.998;2023-02-28T04:18:24;3.47;;;1.73;;
57401;SDS011;43226;51.110;6.998;2023-02-28T04:20:49;1.47;;;1.37;;
57401;SDS011;43226;51.110;6.998;2023-02-28T04:23:14;2.00;;;1.80;;
57401;SDS011;43226;51.110;6.998;2023-02-28T04:25:39;1.83;;;1.73;;
57401;SDS011;43226;51.110;6.998;2023-02-28T04:28:05;6.60;;;2.43;;
57401;SDS011;43226;51.110;6.998;2023-02-28T04:30:30;5.70;;;2.47;;
57401;SDS011;43226;51.110;6.998;2023-02-28T04:32:57;2.63;;;1.93;;
57401;SDS011;43226;51.110;6.998;2023-02-28T04:35:22;4.60;;;2.23;;
57401;SDS011;43226;51.110;6.998;2023-02-28T04:37:47;15.70;;;1.73;;
57401;SDS011;43226;51.110;6.998;2023-02-28T04:40:12;4.03;;;2.00;;
57401;SDS011;43226;51.110;6.998;2023-02-28T04:42:38;4.13;;;1.73;;
57401;SDS011;43226;51.110;6.998;2023-02-28T04:45:03;2.27;;;1.67;;
57401;SDS011;43226;51.110;6.998;2023-02-28T04:47:28;2.03;;;1.93;;
57401;SDS011;43226;51.110;6.998;2023-02-28T04:49:53;1.70;;;1.60;;
57401;SDS011;43226;51.110;6.998;2023-02-28T04:52:19;1.67;;;1.33;;
57401;SDS011;43226;51.110;6.998;2023-02-28T04:54:44;3.90;;;2.00;;
57401;SDS011;43226;51.110;6.998;2023-02-28T04:57:09;2.23;;;1.77;;
57401;SDS011;43226;51.110;6.998;2023-02-28T04:59:35;2.00;;;1.87;;
57401;SDS011;43226;51.110;6.998;2023-02-28T05:02:00;4.87;;;2.10;;
57401;SDS011;43226;51.110;6.998;2023-02-28T05:04:25;2.47;;;1.57;;
57401;SDS011;43226;51.110;6.998;2023-02-28T05:06:50;1.77;;;1.60;;
57401;SDS011;43226;51.110;6.998;2023-02-28T05:09:15;4.73;;;1.70;;
57401;SDS011;43226;51.110;6.998;2023-02-28T05:11:41;2.00;;;1.80;;
57401;SDS011;43226;51.110;6.998;2023-02-28T05:14:10;1.93;;;1.70;;
57401;SDS011;43226;51.110;6.998;2023-02-28T05:16:35;1.97;;;1.80;;
57401;SDS011;43226;51.110;6.998;2023-02-28T05:19:00;2.80;;;1.93;;
57401;SDS011;43226;51.110;6.998;2023-02-28T05:23:51;2.53;;;1.70;;
57401;SDS011;43226;51.110;6.998;2023-02-28T05:26:17;1.60;;;1.50;;
57401;SDS011;43226;51.110;6.998;2023-02-28T05:28:42;2.10;;;1.90;;
57401;SDS011;43226;51.110;6.998;2023-02-28T05:31:08;2.27;;;2.07;;
57401;SDS011;43226;51.110;6.998;2023-02-28T05:33:35;6.50;;;2.07;;
57401;SDS011;43226;51.110;6.998;2023-02-28T05:36:00;1.77;;;1.67;;
57401;SDS011;43226;51.110;6.998;2023-02-28T05:38:26;4.70;;;2.17;;
57401;SDS011;43226;51.110;6.998;2023-02-28T05:40:51;4.83;;;2.00;;
57401;SDS011;43226;51.110;6.998;2023-02-28T05:43:18;1.93;;;1.80;;
57401;SDS011;43226;51.110;6.998;2023-02-28T05:45:43;1.73;;;1.63;;
57401;SDS011;43226;51.110;6.998;2023-02-28T05:48:08;1.70;;;1.60;;
57401;SDS011;43226;51.110;6.998;2023-02-28T05:50:34;1.20;;;1.10;;
57401;SDS011;43226;51.110;6.998;2023-02-28T05:52:59;3.93;;;1.83;;
57401;SDS011;43226;51.110;6.998;2023-02-28T05:55:24;3.80;;;1.77;;
57401;SDS011;43226;51.110;6.998;2023-02-28T05:57:49;1.97;;;1.80;;
57401;SDS011;43226;51.110;6.998;2023-02-28T06:00:14;2.07;;;1.87;;
57401;SDS011;43226;51.110;6.998;2023-02-28T06:02:40;4.67;;;2.17;;
57401;SDS011;43226;51.110;6.998;2023-02-28T06:05:09;1.67;;;1.57;;
57401;SDS011;43226;51.110;6.998;2023-02-28T06:07:37;2.30;;;2.07;;
57401;SDS011;43226;51.110;6.998;2023-02-28T06:10:02;2.80;;;1.57;;
57401;SDS011;43226;51.110;6.998;2023-02-28T06:12:28;2.23;;;1.50;;
57401;SDS011;43226;51.110;6.998;2023-02-28T06:14:53;2.30;;;1.70;;
57401;SDS011;43226;51.110;6.998;2023-02-28T06:17:18;2.13;;;1.93;;
57401;SDS011;43226;51.110;6.998;2023-02-28T06:19:43;1.90;;;1.80;;
57401;SDS011;43226;51.110;6.998;2023-02-28T06:22:08;1.73;;;1.63;;
57401;SDS011;43226;51.110;6.998;2023-02-28T06:24:33;4.30;;;2.10;;
57401;SDS011;43226;51.110;6.998;2023-02-28T06:26:59;1.73;;;1.63;;
57401;SDS011;43226;51.110;6.998;2023-02-28T06:29:29;1.80;;;1.70;;
57401;SDS011;43226;51.110;6.998;2023-02-28T06:31:54;2.23;;;1.70;;
57401;SDS011;43226;51.110;6.998;2023-02-28T06:34:20;1.83;;;1.73;;
57401;SDS011;43226;51.110;6.998;2023-02-28T06:36:45;2.10;;;1.70;;
57401;SDS011;43226;51.110;6.998;2023-02-28T06:39:10;1.50;;;1.40;;
57401;SDS011;43226;51.110;6.998;2023-02-28T06:41:35;2.10;;;1.50;;
57401;SDS011;43226;51.110;6.998;2023-02-28T06:44:05;2.30;;;1.90;;
57401;SDS011;43226;51.110;6.998;2023-02-28T06:46:30;1.77;;;1.67;;
57401;SDS011;43226;51.110;6.998;2023-02-28T06:48:55;2.60;;;2.23;;
57401;SDS011;43226;51.110;6.998;2023-02-28T06:51:20;2.03;;;1.93;;
57401;SDS011;43226;51.110;6.998;2023-02-28T06:53:47;18.33;;;10.93;;
57401;SDS011;43226;51.110;6.998;2023-02-28T06:56:13;33.03;;;15.47;;
57401;SDS011;43226;51.110;6.998;2023-02-28T06:58:38;40.00;;;18.57;;
57401;SDS011;43226;51.110;6.998;2023-02-28T07:01:04;9.00;;;5.27;;
57401;SDS011;43226;51.110;6.998;2023-02-28T07:03:29;4.70;;;4.30;;
57401;SDS011;43226;51.110;6.998;2023-02-28T07:05:55;3.03;;;2.70;;
57401;SDS011;43226;51.110;6.998;2023-02-28T07:08:21;4.27;;;2.30;;
57401;SDS011;43226;51.110;6.998;2023-02-28T07:10:46;3.20;;;2.30;;
57401;SDS011;43226;51.110;6.998;2023-02-28T07:13:11;3.27;;;2.30;;
57401;SDS011;43226;51.110;6.998;2023-02-28T07:15:37;2.87;;;2.60;;
57401;SDS011;43226;51.110;6.998;2023-02-28T07:18:02;3.67;;;2.03;;
57401;SDS011;43226;51.110;6.998;2023-02-28T07:20:28;2.53;;;2.33;;
57401;SDS011;43226;51.110;6.998;2023-02-28T07:22:53;2.40;;;2.20;;
57401;SDS011;43226;51.110;6.998;2023-02-28T07:25:22;2.57;;;2.37;;
57401;SDS011;43226;51.110;6.998;2023-02-28T07:27:47;4.53;;;2.50;;
57401;SDS011;43226;51.110;6.998;2023-02-28T07:30:13;6.53;;;2.53;;
57401;SDS011;43226;51.110;6.998;2023-02-28T07:32:38;2.30;;;2.10;;
57401;SDS011;43226;51.110;6.998;2023-02-28T07:35:03;2.10;;;2.00;;
57401;SDS011;43226;51.110;6.998;2023-02-28T07:37:29;3.27;;;2.40;;
57401;SDS011;43226;51.110;6.998;2023-02-28T07:39:56;3.53;;;2.23;;
57401;SDS011;43226;51.110;6.998;2023-02-28T07:42:21;3.43;;;2.20;;
57401;SDS011;43226;51.110;6.998;2023-02-28T07:44:46;2.33;;;1.90;;
57401;SDS011;43226;51.110;6.998;2023-02-28T07:47:11;2.40;;;2.20;;
57401;SDS011;43226;51.110;6.998;2023-02-28T07:49:37;2.20;;;2.10;;
57401;SDS011;43226;51.110;6.998;2023-02-28T07:52:02;3.33;;;2.07;;
57401;SDS011;43226;51.110;6.998;2023-02-28T07:54:28;2.23;;;2.03;;
57401;SDS011;43226;51.110;6.998;2023-02-28T07:56:53;2.10;;;1.80;;
57401;SDS011;43226;51.110;6.998;2023-02-28T07:59:18;2.00;;;1.90;;
57401;SDS011;43226;51.110;6.998;2023-02-28T08:01:44;4.07;;;2.20;;
57401;SDS011;43226;51.110;6.998;2023-02-28T08:04:09;2.23;;;2.00;;
57401;SDS011;43226;51.110;6.998;2023-02-28T08:06:34;2.53;;;2.30;;
57401;SDS011;43226;51.110;6.998;2023-02-28T08:09:00;1.93;;;1.83;;
57401;SDS011;43226;51.110;6.998;2023-02-28T08:11:25;1.97;;;1.87;;
57401;SDS011;43226;51.110;6.998;2023-02-28T08:13:50;1.97;;;1.80;;
57401;SDS011;43226;51.110;6.998;2023-02-28T08:16:15;2.70;;;1.90;;
57401;SDS011;43226;51.110;6.998;2023-02-28T08:18:46;2.63;;;2.00;;
57401;SDS011;43226;51.110;6.998;2023-02-28T08:21:11;2.60;;;2.00;;
57401;SDS011;43226;51.110;6.998;2023-02-28T08:23:36;2.83;;;1.90;;
57401;SDS011;43226;51.110;6.998;2023-02-28T08:26:01;2.50;;;1.87;;
57401;SDS011;43226;51.110;6.998;2023-02-28T08:28:27;1.93;;;1.83;;
57401;SDS011;43226;51.110;6.998;2023-02-28T08:30:52;2.17;;;2.07;;
57401;SDS011;43226;51.110;6.998;2023-02-28T08:33:17;3.50;;;2.50;;
57401;SDS011;43226;51.110;6.998;2023-02-28T08:35:42;1.70;;;1.60;;
57401;SDS011;43226;51.110;6.998;2023-02-28T08:38:07;2.77;;;2.20;;
57401;SDS011;43226;51.110;6.998;2023-02-28T08:40:32;4.83;;;2.10;;
57401;SDS011;43226;51.110;6.998;2023-02-28T08:42:58;5.10;;;3.33;;
57401;SDS011;43226;51.110;6.998;2023-02-28T08:45:24;5.10;;;2.90;;
57401;SDS011;43226;51.110;6.998;2023-02-28T08:47:49;4.23;;;3.13;;
57401;SDS011;43226;51.110;6.998;2023-02-28T08:50:17;5.47;;;2.97;;
57401;SDS011;43226;51.110;6.998;2023-02-28T08:52:42;2.27;;;2.07;;
57401;SDS011;43226;51.110;6.998;2023-02-28T08:55:08;2.40;;;2.20;;
57401;SDS011;43226;51.110;6.998;2023-02-28T08:57:34;1.97;;;1.70;;
57401;SDS011;43226;51.110;6.998;2023-02-28T08:59:59;1.90;;;1.70;;
57401;SDS011;43226;51.110;6.998;2023-02-28T09:02:25;1.90;;;1.70;;
57401;SDS011;43226;51.110;6.998;2023-02-28T09:04:50;2.30;;;2.10;;
57401;SDS011;43226;51.110;6.998;2023-02-28T09:07:15;1.13;;;1.03;;
57401;SDS011;43226;51.110;6.998;2023-02-28T09:09:40;1.87;;;1.77;;
57401;SDS011;43226;51.110;6.998;2023-02-28T09:12:18;3.93;;;1.60;;
57401;SDS011;43226;51.110;6.998;2023-02-28T09:14:43;2.50;;;1.60;;
57401;SDS011;43226;51.110;6.998;2023-02-28T09:17:09;1.70;;;1.60;;
57401;SDS011;43226;51.110;6.998;2023-02-28T09:19:34;1.57;;;1.40;;
57401;SDS011;43226;51.110;6.998;2023-02-28T09:21:59;2.23;;;1.83;;
57401;SDS011;43226;51.110;6.998;2023-02-28T09:24:24;1.83;;;1.60;;
57401;SDS011;43226;51.110;6.998;2023-02-28T09:26:49;1.53;;;1.43;;
57401;SDS011;43226;51.110;6.998;2023-02-28T09:29:14;1.67;;;1.43;;
57401;SDS011;43226;51.110;6.998;2023-02-28T09:31:41;1.90;;;1.67;;
57401;SDS011;43226;51.110;6.998;2023-02-28T09:34:06;1.57;;;1.33;;
57401;SDS011;43226;51.110;6.998;2023-02-28T09:36:32;2.20;;;1.60;;
57401;SDS011;43226;51.110;6.998;2023-02-28T09:38:58;2.07;;;1.90;;
57401;SDS011;43226;51.110;6.998;2023-02-28T09:41:24;2.00;;;1.43;;
57401;SDS011;43226;51.110;6.998;2023-02-28T09:43:52;2.97;;;1.80;;
57401;SDS011;43226;51.110;6.998;2023-02-28T09:49:05;4.40;;;2.13;;
57401;SDS011;43226;51.110;6.998;2023-02-28T09:51:33;16.70;;;2.03;;
57401;SDS011;43226;51.110;6.998;2023-02-28T09:54:00;1.90;;;1.77;;
57401;SDS011;43226;51.110;6.998;2023-02-28T09:56:28;1.83;;;1.50;;
57401;SDS011;43226;51.110;6.998;2023-02-28T09:59:00;1.60;;;1.50;;
57401;SDS011;43226;51.110;6.998;2023-02-28T10:06:44;3.80;;;1.60;;
57401;SDS011;43226;51.110;6.998;2023-02-28T10:09:11;2.07;;;1.37;;
57401;SDS011;43226;51.110;6.998;2023-02-28T10:11:38;2.57;;;1.70;;
57401;SDS011;43226;51.110;6.998;2023-02-28T10:14:06;3.53;;;2.00;;
57401;SDS011;43226;51.110;6.998;2023-02-28T10:16:40;2.00;;;1.80;;
57401;SDS011;43226;51.110;6.998;2023-02-28T10:19:14;1.77;;;1.67;;
57401;SDS011;43226;51.110;6.998;2023-02-28T10:21:43;2.37;;;1.77;;
57401;SDS011;43226;51.110;6.998;2023-02-28T10:26:38;1.83;;;1.63;;
57401;SDS011;43226;51.110;6.998;2023-02-28T10:29:03;3.63;;;1.83;;
57401;SDS011;43226;51.110;6.998;2023-02-28T10:31:28;2.93;;;1.47;;
57401;SDS011;43226;51.110;6.998;2023-02-28T10:33:53;2.07;;;1.70;;
57401;SDS011;43226;51.110;6.998;2023-02-28T10:36:20;2.20;;;1.77;;
57401;SDS011;43226;51.110;6.998;2023-02-28T10:38:46;2.10;;;1.60;;
57401;SDS011;43226;51.110;6.998;2023-02-28T10:41:15;2.20;;;1.50;;
57401;SDS011;43226;51.110;6.998;2023-02-28T10:43:41;1.67;;;1.57;;
57401;SDS011;43226;51.110;6.998;2023-02-28T10:46:11;4.30;;;1.60;;
57401;SDS011;43226;51.110;6.998;2023-02-28T10:48:44;1.60;;;1.47;;
57401;SDS011;43226;51.110;6.998;2023-02-28T10:51:13;2.47;;;1.93;;
57401;SDS011;43226;51.110;6.998;2023-02-28T11:01:12;2.00;;;1.80;;
57401;SDS011;43226;51.110;6.998;2023-02-28T11:03:38;1.80;;;1.70;;
57401;SDS011;43226;51.110;6.998;2023-02-28T11:06:05;5.63;;;1.70;;
57401;SDS011;43226;51.110;6.998;2023-02-28T11:08:31;4.27;;;1.87;;
57401;SDS011;43226;51.110;6.998;2023-02-28T11:10:57;2.20;;;2.00;;
57401;SDS011;43226;51.110;6.998;2023-02-28T11:13:27;2.37;;;2.17;;
57401;SDS011;43226;51.110;6.998;2023-02-28T11:15:54;1.97;;;1.80;;
57401;SDS011;43226;51.110;6.998;2023-02-28T11:20:51;2.50;;;1.97;;
57401;SDS011;43226;51.110;6.998;2023-02-28T11:23:17;2.00;;;1.80;;
57401;SDS011;43226;51.110;6.998;2023-02-28T11:25:49;2.17;;;1.97;;
57401;SDS011;43226;51.110;6.998;2023-02-28T11:28:29;2.23;;;1.83;;
57401;SDS011;43226;51.110;6.998;2023-02-28T11:31:15;2.37;;;1.63;;
57401;SDS011;43226;51.110;6.998;2023-02-28T11:33:42;3.17;;;1.90;;
57401;SDS011;43226;51.110;6.998;2023-02-28T11:36:13;2.30;;;2.10;;
57401;SDS011;43226;51.110;6.998;2023-02-28T11:38:39;2.33;;;2.13;;
57401;SDS011;43226;51.110;6.998;2023-02-28T11:41:09;2.10;;;2.00;;
57401;SDS011;43226;51.110;6.998;2023-02-28T11:43:51;10.23;;;2.57;;
57401;SDS011;43226;51.110;6.998;2023-02-28T11:49:05;2.53;;;1.93;;
57401;SDS011;43226;51.110;6.998;2023-02-28T11:51:40;2.07;;;1.97;;
57401;SDS011;43226;51.110;6.998;2023-02-28T12:06:33;2.07;;;1.87;;
57401;SDS011;43226;51.110;6.998;2023-02-28T12:16:45;2.10;;;1.90;;
57401;SDS011;43226;51.110;6.998;2023-02-28T12:21:50;2.38;;;2.17;;
57401;SDS011;43226;51.110;6.998;2023-02-28T12:24:23;2.97;;;2.10;;
57401;SDS011;43226;51.110;6.998;2023-02-28T12:26:53;4.73;;;2.00;;
57401;SDS011;43226;51.110;6.998;2023-02-28T12:29:23;2.40;;;2.10;;
57401;SDS011;43226;51.110;6.998;2023-02-28T12:31:54;6.13;;;2.60;;
57401;SDS011;43226;51.110;6.998;2023-02-28T12:34:37;1.97;;;1.87;;
57401;SDS011;43226;51.110;6.998;2023-02-28T12:37:04;2.43;;;2.23;;
57401;SDS011;43226;51.110;6.998;2023-02-28T12:39:33;3.40;;;1.80;;
57401;SDS011;43226;51.110;6.998;2023-02-28T12:42:10;3.50;;;2.33;;
57401;SDS011;43226;51.110;6.998;2023-02-28T12:44:43;3.00;;;2.10;;
57401;SDS011;43226;51.110;6.998;2023-02-28T12:47:11;2.17;;;1.97;;
57401;SDS011;43226;51.110;6.998;2023-02-28T12:49:39;2.23;;;1.97;;
57401;SDS011;43226;51.110;6.998;2023-02-28T12:52:06;2.17;;;1.80;;
57401;SDS011;43226;51.110;6.998;2023-02-28T12:54:38;2.13;;;1.80;;
57401;SDS011;43226;51.110;6.998;2023-02-28T12:57:11;1.90;;;1.80;;
57401;SDS011;43226;51.110;6.998;2023-02-28T12:59:42;1.93;;;1.67;;
57401;SDS011;43226;51.110;6.998;2023-02-28T13:04:44;2.17;;;2.00;;
57401;SDS011;43226;51.110;6.998;2023-02-28T13:07:25;2.90;;;2.00;;
57401;SDS011;43226;51.110;6.998;2023-02-28T13:09:55;2.87;;;2.10;;
57401;SDS011;43226;51.110;6.998;2023-02-28T13:12:21;2.90;;;2.17;;
57401;SDS011;43226;51.110;6.998;2023-02-28T13:14:48;3.83;;;2.00;;
57401;SDS011;43226;51.110;6.998;2023-02-28T13:17:19;2.60;;;1.87;;
57401;SDS011;43226;51.110;6.998;2023-02-28T13:19:45;3.40;;;2.17;;
57401;SDS011;43226;51.110;6.998;2023-02-28T13:22:55;2.40;;;2.10;;
57401;SDS011;43226;51.110;6.998;2023-02-28T13:25:04;5.70;;;2.00;;
57401;SDS011;43226;51.110;6.998;2023-02-28T13:27:48;2.27;;;2.03;;
57401;SDS011;43226;51.110;6.998;2023-02-28T13:35:48;3.53;;;1.83;;
57401;SDS011;43226;51.110;6.998;2023-02-28T13:38:17;4.83;;;2.47;;
57401;SDS011;43226;51.110;6.998;2023-02-28T13:40:42;3.77;;;2.00;;
57401;SDS011;43226;51.110;6.998;2023-02-28T13:43:08;2.27;;;2.10;;
57401;SDS011;43226;51.110;6.998;2023-02-28T13:45:33;2.70;;;2.13;;
57401;SDS011;43226;51.110;6.998;2023-02-28T13:48:04;11.50;;;2.70;;
57401;SDS011;43226;51.110;6.998;2023-02-28T14:00:47;2.33;;;2.10;;
57401;SDS011;43226;51.110;6.998;2023-02-28T14:05:48;4.77;;;2.10;;
57401;SDS011;43226;51.110;6.998;2023-02-28T14:08:32;2.80;;;2.50;;
57401;SDS011;43226;51.110;6.998;2023-02-28T14:11:05;2.43;;;1.80;;
57401;SDS011;43226;51.110;6.998;2023-02-28T14:13:38;1.83;;;1.73;;
57401;SDS011;43226;51.110;6.998;2023-02-28T14:16:09;3.33;;;2.43;;
57401;SDS011;43226;51.110;6.998;2023-02-28T14:18:36;2.60;;;2.13;;
57401;SDS011;43226;51.110;6.998;2023-02-28T14:24:24;3.37;;;2.00;;
57401;SDS011;43226;51.110;6.998;2023-02-28T14:27:03;3.37;;;2.40;;
57401;SDS011;43226;51.110;6.998;2023-02-28T14:29:56;2.70;;;2.17;;
57401;SDS011;43226;51.110;6.998;2023-02-28T14:37:37;3.10;;;2.03;;
57401;SDS011;43226;51.110;6.998;2023-02-28T14:40:04;2.50;;;2.27;;
57401;SDS011;43226;51.110;6.998;2023-02-28T14:44:55;2.00;;;1.80;;
57401;SDS011;43226;51.110;6.998;2023-02-28T14:47:21;2.10;;;1.90;;
57401;SDS011;43226;51.110;6.998;2023-02-28T14:49:48;1.90;;;1.80;;
57401;SDS011;43226;51.110;6.998;2023-02-28T14:54:44;2.50;;;2.07;;
57401;SDS011;43226;51.110;6.998;2023-02-28T14:59:58;3.07;;;2.83;;
57401;SDS011;43226;51.110;6.998;2023-02-28T15:02:24;3.17;;;2.10;;
57401;SDS011;43226;51.110;6.998;2023-02-28T15:05:23;4.93;;;2.63;;
57401;SDS011;43226;51.110;6.998;2023-02-28T15:07:44;3.60;;;2.23;;
57401;SDS011;43226;51.110;6.998;2023-02-28T15:12:35;2.60;;;2.40;;
57401;SDS011;43226;51.110;6.998;2023-02-28T15:15:01;2.70;;;2.10;;
57401;SDS011;43226;51.110;6.998;2023-02-28T15:17:27;4.40;;;3.50;;
57401;SDS011;43226;51.110;6.998;2023-02-28T15:19:52;2.30;;;2.00;;
57401;SDS011;43226;51.110;6.998;2023-02-28T15:22:19;4.90;;;2.57;;
57401;SDS011;43226;51.110;6.998;2023-02-28T15:24:48;2.67;;;2.10;;
57401;SDS011;43226;51.110;6.998;2023-02-28T15:27:21;2.20;;;2.07;;
57401;SDS011;43226;51.110;6.998;2023-02-28T15:29:48;2.40;;;2.20;;
57401;SDS011;43226;51.110;6.998;2023-02-28T15:34:50;3.27;;;2.10;;
57401;SDS011;43226;51.110;6.998;2023-02-28T15:42:42;2.40;;;2.20;;
57401;SDS011;43226;51.110;6.998;2023-02-28T15:45:26;7.23;;;2.77;;
57401;SDS011;43226;51.110;6.998;2023-02-28T15:47:51;3.83;;;2.40;;
57401;SDS011;43226;51.110;6.998;2023-02-28T15:50:17;4.33;;;2.67;;
57401;SDS011;43226;51.110;6.998;2023-02-28T15:52:43;4.07;;;2.60;;
57401;SDS011;43226;51.110;6.998;2023-02-28T15:57:50;2.97;;;2.53;;
57401;SDS011;43226;51.110;6.998;2023-02-28T16:00:19;2.77;;;2.57;;
57401;SDS011;43226;51.110;6.998;2023-02-28T16:02:44;2.90;;;2.37;;
57401;SDS011;43226;51.110;6.998;2023-02-28T16:07:41;3.77;;;2.40;;
57401;SDS011;43226;51.110;6.998;2023-02-28T16:10:09;2.60;;;2.10;;
57401;SDS011;43226;51.110;6.998;2023-02-28T16:12:35;2.90;;;2.50;;
57401;SDS011;43226;51.110;6.998;2023-02-28T16:15:01;3.60;;;2.30;;
57401;SDS011;43226;51.110;6.998;2023-02-28T16:17:32;2.37;;;2.00;;
57401;SDS011;43226;51.110;6.998;2023-02-28T16:19:58;4.17;;;2.30;;
57401;SDS011;43226;51.110;6.998;2023-02-28T16:22:23;2.97;;;2.30;;
57401;SDS011;43226;51.110;6.998;2023-02-28T16:24:48;2.90;;;2.70;;
57401;SDS011;43226;51.110;6.998;2023-02-28T16:27:18;2.60;;;2.37;;
57401;SDS011;43226;51.110;6.998;2023-02-28T16:29:43;2.73;;;2.30;;
57401;SDS011;43226;51.110;6.998;2023-02-28T16:32:10;3.23;;;2.40;;
57401;SDS011;43226;51.110;6.998;2023-02-28T16:34:36;3.20;;;2.53;;
57401;SDS011;43226;51.110;6.998;2023-02-28T16:37:01;8.00;;;3.20;;
57401;SDS011;43226;51.110;6.998;2023-02-28T16:39:27;4.73;;;2.90;;
57401;SDS011;43226;51.110;6.998;2023-02-28T16:41:52;2.43;;;2.23;;
57401;SDS011;43226;51.110;6.998;2023-02-28T16:46:49;3.33;;;2.77;;
57401;SDS011;43226;51.110;6.998;2023-02-28T16:49:14;6.93;;;3.20;;
57401;SDS011;43226;51.110;6.998;2023-02-28T16:51:39;2.90;;;2.47;;
57401;SDS011;43226;51.110;6.998;2023-02-28T16:54:04;4.20;;;3.20;;
57401;SDS011;43226;51.110;6.998;2023-02-28T16:56:29;3.13;;;2.83;;
57401;SDS011;43226;51.110;6.998;2023-02-28T16:58:55;3.70;;;3.40;;
57401;SDS011;43226;51.110;6.998;2023-02-28T17:01:22;4.63;;;4.00;;
57401;SDS011;43226;51.110;6.998;2023-02-28T17:03:48;3.60;;;3.23;;
57401;SDS011;43226;51.110;6.998;2023-02-28T17:06:21;4.50;;;3.17;;